Time;durP1;ratioP1;P1;durP2;ratioP2;P2;SDS_P1;SDS_P2;PMS_P1;PMS_P2;Temp;Humidity;BMP_temperature;BMP_pressure;BME280_temperature;BME280_humidity;BME280_pressure;Samples;Min_cycle;Max_cycle;Signal;HPM_P1;HPM_P2
2024/01/13 00:00:09;;;;;;;;;;;;;;;20.35;40.71;101724.69;2056935;28;6143;-65
2024/01/13 00:01:11;;;;;;;;;;;;;;;20.36;40.62;101729.06;2057804;28;1726;-66
2024/01/13 00:02:12;;;;;;;;;;;;;;;20.35;40.46;101725.44;2060225;28;2258;-65
2024/01/13 00:03:13;;;;;;;;;;;;;;;20.35;40.76;101733.31;2060944;28;1877;-65
2024/01/13 00:04:15;;;;;;;;;;;;;;;20.35;40.65;101725.44;2059522;28;2282;-66
2024/01/13 00:05:18;;;;;;;;;;;;;;;20.35;40.64;101722.56;2062568;28;1707;-65
2024/01/13 00:06:19;;;;;;;;;;;;;;;20.34;40.71;101721.06;2058892;28;2210;-65
2024/01/13 00:07:22;;;;;;;;;;;;;;;20.35;40.52;101713.94;2061451;28;1710;-65
2024/01/13 00:08:24;;;;;;;;;;;;;;;20.35;40.67;101722.56;2062708;28;1698;-65
2024/01/13 00:09:37;;;;;;;;;;;;;;;20.35;40.66;101721.81;2062169;28;2178;-66
2024/01/13 00:10:38;;;;;;;;;;;;;;;20.33;40.76;101719.56;2058556;28;2042;-65
2024/01/13 00:11:39;;;;;;;;;;;;;;;20.34;40.71;101723.94;2060931;28;2145;-66
2024/01/13 00:12:41;;;;;;;;;;;;;;;20.34;40.58;101717.41;2060935;28;2072;-65
2024/01/13 00:13:43;;;;;;;;;;;;;;;20.32;40.55;101723.81;2059637;28;1891;-65
2024/01/13 00:14:44;;;;;;;;;;;;;;;20.31;40.57;101719.44;2060972;28;1922;-65
2024/01/13 00:15:46;;;;;;;;;;;;;;;20.31;40.56;101725.19;2061811;28;2239;-65
2024/01/13 00:16:49;;;;;;;;;;;;;;;20.31;40.69;101719.44;2055524;28;2299;-65
2024/01/13 00:17:50;;;;;;;;;;;;;;;20.31;40.64;101719.44;2047921;28;2027;-65
2024/01/13 00:18:52;;;;;;;;;;;;;;;20.30;40.54;101712.94;2052648;28;2542;-65
2024/01/13 00:19:53;;;;;;;;;;;;;;;20.31;40.54;101725.19;2053549;28;2145;-65
2024/01/13 00:20:55;;;;;;;;;;;;;;;20.30;40.73;101727.31;2052543;28;2207;-65
2024/01/13 00:21:56;;;;;;;;;;;;;;;20.29;40.55;101713.56;2058227;28;2168;-66
2024/01/13 00:22:58;;;;;;;;;;;;;;;20.30;40.72;101715.06;2065143;28;1635;-65
2024/01/13 00:23:59;;;;;;;;;;;;;;;20.29;40.67;101713.56;2060351;28;2206;-65
2024/01/13 00:25:01;;;;;;;;;;;;;;;20.29;40.76;101717.19;2057552;28;2194;-65
2024/01/13 00:26:02;;;;;;;;;;;;;;;20.28;40.58;101714.94;2062935;28;2132;-65
2024/01/13 00:27:04;;;;;;;;;;;;;;;20.28;40.74;101712.06;2062247;28;2263;-65
2024/01/13 00:28:06;;;;;;;;;;;;;;;20.27;40.69;101708.44;2058476;28;1757;-66
2024/01/13 00:29:08;;;;;;;;;;;;;;;20.27;40.69;101708.44;2060046;28;2155;-65
2024/01/13 00:30:10;;;;;;;;;;;;;;;20.27;40.65;101710.56;2059722;28;6103;-64
2024/01/13 00:31:11;;;;;;;;;;;;;;;20.27;40.74;101713.44;2059436;28;2273;-65
2024/01/13 00:32:13;;;;;;;;;;;;;;;20.26;40.72;101706.19;2057618;28;2223;-65
2024/01/13 00:33:14;;;;;;;;;;;;;;;20.27;40.67;101708.44;2061025;28;1991;-65
2024/01/13 00:34:16;;;;;;;;;;;;;;;20.28;40.68;101709.19;2058507;28;2183;-65
2024/01/13 00:35:17;;;;;;;;;;;;;;;20.27;40.60;101711.31;2060096;28;1917;-65
2024/01/13 00:36:19;;;;;;;;;;;;;;;20.28;40.52;101709.19;2060654;28;1615;-65
2024/01/13 00:37:20;;;;;;;;;;;;;;;20.29;40.72;101710.69;2058137;28;1908;-65
2024/01/13 00:38:22;;;;;;;;;;;;;;;20.29;40.76;101716.44;2060911;28;1860;-65
2024/01/13 00:39:35;;;;;;;;;;;;;;;20.27;40.86;101710.56;2058657;28;1849;-65
2024/01/13 00:40:37;;;;;;;;;;;;;;;20.29;40.64;101704.94;2060982;28;1535;-65
2024/01/13 00:41:38;;;;;;;;;;;;;;;20.28;40.77;101712.81;2058626;28;1854;-65
2024/01/13 00:42:42;;;;;;;;;;;;;;;20.29;40.71;101708.56;2051312;28;2093;-65
2024/01/13 00:43:44;;;;;;;;;;;;;;;20.30;40.65;101709.31;2053598;28;2172;-65
2024/01/13 00:44:45;;;;;;;;;;;;;;;20.30;40.77;101712.19;2061870;28;1877;-65
2024/01/13 00:45:47;;;;;;;;;;;;;;;20.31;40.53;101710.81;2057174;28;1908;-65
2024/01/13 00:46:48;;;;;;;;;;;;;;;20.32;40.79;101714.41;2059188;28;2191;-65
2024/01/13 00:47:49;;;;;;;;;;;;;;;20.31;40.61;101705.06;2062458;28;1650;-65
2024/01/13 00:48:51;;;;;;;;;;;;;;;20.30;40.69;101712.94;2059692;28;2156;-65
2024/01/13 00:49:53;;;;;;;;;;;;;;;20.30;40.72;101697.81;2059882;28;1673;-65
2024/01/13 00:50:54;;;;;;;;;;;;;;;20.30;40.57;101703.56;2059873;28;2186;-65
2024/01/13 00:51:56;;;;;;;;;;;;;;;20.30;40.62;101703.56;2057246;28;1978;-65
2024/01/13 00:52:57;;;;;;;;;;;;;;;20.29;40.63;101704.94;2057365;28;1638;-65
2024/01/13 00:53:59;;;;;;;;;;;;;;;20.29;40.70;101705.69;2059446;28;2274;-65
2024/01/13 00:55:00;;;;;;;;;;;;;;;20.28;40.68;101703.44;2060651;28;2346;-65
2024/01/13 00:56:01;;;;;;;;;;;;;;;20.28;40.84;101704.19;2058392;28;1630;-65
2024/01/13 00:57:03;;;;;;;;;;;;;;;20.27;40.64;101696.94;2060560;28;2223;-66
2024/01/13 00:58:05;;;;;;;;;;;;;;;20.28;40.61;101700.56;2059471;28;2156;-65
2024/01/13 00:59:06;;;;;;;;;;;;;;;20.27;40.65;101699.81;2056811;28;1940;-65
2024/01/13 01:00:08;;;;;;;;;;;;;;;20.27;40.69;101701.91;2060764;28;6228;-64
2024/01/13 01:01:09;;;;;;;;;;;;;;;20.26;40.61;101689.69;2063579;28;2234;-65
2024/01/13 01:02:11;;;;;;;;;;;;;;;20.26;40.65;101698.31;2060551;28;2208;-65
2024/01/13 01:03:12;;;;;;;;;;;;;;;20.25;40.63;101699.69;2058921;28;2156;-65
2024/01/13 01:04:14;;;;;;;;;;;;;;;20.26;40.83;101691.81;2057980;28;2148;-65
2024/01/13 01:05:15;;;;;;;;;;;;;;;20.25;40.77;101690.31;2062380;28;1666;-65
2024/01/13 01:06:17;;;;;;;;;;;;;;;20.25;40.72;101687.44;2061667;28;1801;-65
2024/01/13 01:07:19;;;;;;;;;;;;;;;20.25;40.78;101687.44;2059008;28;2076;-65
2024/01/13 01:08:20;;;;;;;;;;;;;;;20.24;40.84;101683.06;2059701;28;2089;-65
2024/01/13 01:09:27;;;;;;;;;;;;;;;20.22;40.86;101689.44;2056690;28;1681;-65
2024/01/13 01:10:28;;;;;;;;;;;;;;;20.22;40.80;101683.66;2063081;28;1625;-64
2024/01/13 01:11:30;;;;;;;;;;;;;;;20.23;40.73;101682.31;2061566;28;2123;-65
2024/01/13 01:12:31;;;;;;;;;;;;;;;20.24;40.85;101680.19;2060871;28;1872;-65
2024/01/13 01:13:33;;;;;;;;;;;;;;;20.24;40.66;101678.03;2059015;28;2128;-65
2024/01/13 01:14:34;;;;;;;;;;;;;;;20.23;40.67;101673.69;2061029;28;2199;-65
2024/01/13 01:15:36;;;;;;;;;;;;;;;20.25;40.58;101675.94;2059499;28;1918;-65
2024/01/13 01:16:37;;;;;;;;;;;;;;;20.25;40.68;101681.69;2063692;28;1868;-65
2024/01/13 01:17:39;;;;;;;;;;;;;;;20.25;40.72;101673.81;2060743;28;1833;-65
2024/01/13 01:18:40;;;;;;;;;;;;;;;20.27;40.69;101670.28;2058546;28;2159;-65
2024/01/13 01:19:46;;;;;;;;;;;;;;;20.25;40.65;101676.69;2059948;28;1633;-64
2024/01/13 01:20:48;;;;;;;;;;;;;;;20.26;40.81;101665.91;2058154;28;2224;-65
2024/01/13 01:21:49;;;;;;;;;;;;;;;20.27;40.68;101667.41;2059040;28;1630;-65
2024/01/13 01:22:51;;;;;;;;;;;;;;;20.27;40.62;101673.94;2060868;28;1647;-65
2024/01/13 01:23:52;;;;;;;;;;;;;;;20.28;40.73;101669.66;2058651;28;2147;-65
2024/01/13 01:24:54;;;;;;;;;;;;;;;20.29;40.87;101676.16;2060894;28;2202;-65
2024/01/13 01:25:55;;;;;;;;;;;;;;;20.28;40.71;101668.94;2061801;28;1511;-65
2024/01/13 01:26:57;;;;;;;;;;;;;;;20.28;40.65;101663.16;2061582;28;2314;-64
2024/01/13 01:27:58;;;;;;;;;;;;;;;20.27;40.68;101673.94;2062715;28;1508;-65
2024/01/13 01:29:00;;;;;;;;;;;;;;;20.27;40.73;101667.41;2059224;28;2196;-65
2024/01/13 01:30:01;;;;;;;;;;;;;;;20.27;40.64;101667.41;2058797;28;2183;-65
2024/01/13 01:31:06;;;;;;;;;;;;;;;20.28;40.67;101663.16;2061440;28;6012;-65
2024/01/13 01:32:09;;;;;;;;;;;;;;;20.27;40.73;101655.91;2056770;28;1726;-65
2024/01/13 01:33:11;;;;;;;;;;;;;;;20.27;40.64;101650.16;2060385;28;2148;-65
2024/01/13 01:34:13;;;;;;;;;;;;;;;20.25;40.83;101653.69;2056433;28;2221;-65
2024/01/13 01:35:14;;;;;;;;;;;;;;;20.27;40.60;101655.91;2059573;28;1857;-65
2024/01/13 01:36:16;;;;;;;;;;;;;;;20.26;40.71;101655.16;2058867;28;1983;-65
2024/01/13 01:37:17;;;;;;;;;;;;;;;20.25;40.66;101652.94;2066756;28;1818;-65
2024/01/13 01:38:19;;;;;;;;;;;;;;;20.25;40.56;101652.94;2051069;28;2160;-65
2024/01/13 01:39:39;;;;;;;;;;;;;;;20.24;40.81;101657.91;2055074;28;1672;-65
2024/01/13 01:40:40;;;;;;;;;;;;;;;20.24;40.79;101662.91;2063654;28;2175;-65
2024/01/13 01:41:42;;;;;;;;;;;;;;;20.24;40.87;101651.41;2058133;28;2030;-65
2024/01/13 01:42:43;;;;;;;;;;;;;;;20.25;40.76;101652.94;2059671;28;2128;-65
2024/01/13 01:43:45;;;;;;;;;;;;;;;20.24;40.74;101657.16;2063343;28;1563;-68
2024/01/13 01:44:46;;;;;;;;;;;;;;;20.22;40.86;101643.41;2058145;28;2141;-66
2024/01/13 01:45:48;;;;;;;;;;;;;;;20.22;40.62;101640.53;2050720;28;1667;-65
2024/01/13 01:46:49;;;;;;;;;;;;;;;20.23;40.73;101647.06;2055717;28;1932;-65
2024/01/13 01:47:51;;;;;;;;;;;;;;;20.23;40.77;101649.94;2058983;28;1667;-68
2024/01/13 01:48:55;;;;;;;;;;;;;;;20.22;40.81;101642.66;2051958;28;1866;-69
2024/01/13 01:49:56;;;;;;;;;;;;;;;20.22;40.83;101654.16;2043840;28;1871;-69
2024/01/13 01:50:59;;;;;;;;;;;;;;;20.21;40.74;101647.69;2054816;28;2204;-69
2024/01/13 01:52:00;;;;;;;;;;;;;;;20.21;40.74;101641.19;2062930;28;1683;-68
2024/01/13 01:53:02;;;;;;;;;;;;;;;20.21;40.68;101644.06;2061384;28;2156;-68
2024/01/13 01:54:03;;;;;;;;;;;;;;;20.20;40.76;101640.44;2062979;28;1636;-68
2024/01/13 01:55:05;;;;;;;;;;;;;;;20.20;40.91;101639.66;2051696;28;2350;-68
2024/01/13 01:56:12;;;;;;;;;;;;;;;20.19;40.78;101638.19;2051165;28;2268;-68
2024/01/13 01:57:14;;;;;;;;;;;;;;;20.20;40.85;101640.44;2061182;28;2011;-68
2024/01/13 01:58:16;;;;;;;;;;;;;;;20.20;40.82;101640.44;2060570;28;2251;-68
2024/01/13 01:59:29;;;;;;;;;;;;;;;20.22;40.88;101636.91;2058623;28;1691;-68
2024/01/13 02:00:30;;;;;;;;;;;;;;;20.21;40.91;101630.41;2058772;28;6236;-68
2024/01/13 02:01:32;;;;;;;;;;;;;;;20.22;40.68;101634.03;2059761;28;1634;-68
2024/01/13 02:02:33;;;;;;;;;;;;;;;20.23;40.84;101632.69;2061178;28;2225;-68
2024/01/13 02:03:35;;;;;;;;;;;;;;;20.23;40.94;101633.41;2061902;28;1571;-68
2024/01/13 02:04:37;;;;;;;;;;;;;;;20.24;40.79;101628.41;2050865;28;2180;-68
2024/01/13 02:05:39;;;;;;;;;;;;;;;20.24;40.91;101639.91;2055659;28;1664;-68
2024/01/13 02:06:40;;;;;;;;;;;;;;;20.25;40.76;101635.69;2062637;28;2057;-68
2024/01/13 02:07:42;;;;;;;;;;;;;;;20.25;40.81;101629.94;2059627;28;1890;-66
2024/01/13 02:08:44;;;;;;;;;;;;;;;20.25;40.80;101635.69;2062070;28;2183;-69
2024/01/13 02:09:46;;;;;;;;;;;;;;;20.24;40.82;101634.16;2061338;28;1786;-68
2024/01/13 02:10:49;;;;;;;;;;;;;;;20.24;40.80;101628.41;2058964;28;1973;-68
2024/01/13 02:11:50;;;;;;;;;;;;;;;20.23;40.97;101626.94;2059138;28;1604;-68
2024/01/13 02:12:52;;;;;;;;;;;;;;;20.24;40.89;101628.41;2059246;28;2142;-69
2024/01/13 02:13:53;;;;;;;;;;;;;;;20.21;40.89;101630.41;2062333;28;1635;-68
2024/01/13 02:14:55;;;;;;;;;;;;;;;20.23;40.75;101618.31;2057476;28;2319;-68
2024/01/13 02:15:56;;;;;;;;;;;;;;;20.23;40.79;101624.06;2058583;28;1954;-68
2024/01/13 02:16:57;;;;;;;;;;;;;;;20.22;40.84;101620.41;2062301;28;2159;-69
2024/01/13 02:17:59;;;;;;;;;;;;;;;20.22;40.77;101613.91;2060993;28;2237;-69
2024/01/13 02:19:00;;;;;;;;;;;;;;;20.21;40.68;101621.06;2057326;28;2267;-68
2024/01/13 02:20:05;;;;;;;;;;;;;;;20.21;40.73;101621.06;2057447;28;2057;-68
2024/01/13 02:21:07;;;;;;;;;;;;;;;20.21;40.74;101618.91;2060239;28;1897;-67
2024/01/13 02:22:08;;;;;;;;;;;;;;;20.21;40.88;101613.16;2062108;28;2163;-68
2024/01/13 02:23:10;;;;;;;;;;;;;;;20.20;40.79;101611.69;2056975;28;2406;-68
2024/01/13 02:24:11;;;;;;;;;;;;;;;20.20;40.98;101611.69;2060532;28;2135;-68
2024/01/13 02:25:13;;;;;;;;;;;;;;;20.21;40.81;101612.44;2059588;28;2345;-68
2024/01/13 02:26:14;;;;;;;;;;;;;;;20.20;40.76;101608.03;2059393;28;1735;-69
2024/01/13 02:27:16;;;;;;;;;;;;;;;20.19;40.77;101609.44;2055706;28;2187;-69
2024/01/13 02:28:17;;;;;;;;;;;;;;;20.19;40.93;101603.66;2058461;28;2231;-68
2024/01/13 02:29:39;;;;;;;;;;;;;;;20.18;40.84;101599.28;2055932;28;2304;-68
2024/01/13 02:30:40;;;;;;;;;;;;;;;20.18;40.87;101593.53;2058207;28;6088;-69
2024/01/13 02:31:42;;;;;;;;;;;;;;;20.17;40.84;101589.16;2050840;28;1910;-69
2024/01/13 02:32:43;;;;;;;;;;;;;;;20.16;40.85;101593.41;2050935;28;1746;-69
2024/01/13 02:33:45;;;;;;;;;;;;;;;20.16;40.78;101593.41;2059651;28;1801;-68
2024/01/13 02:34:46;;;;;;;;;;;;;;;20.16;40.89;101590.53;2057222;28;1993;-68
2024/01/13 02:35:48;;;;;;;;;;;;;;;20.17;41.00;101594.94;2058261;28;2240;-68
2024/01/13 02:36:49;;;;;;;;;;;;;;;20.16;40.92;101587.66;2060130;28;1915;-69
2024/01/13 02:37:51;;;;;;;;;;;;;;;20.17;40.73;101584.16;2060775;28;1722;-68
2024/01/13 02:38:52;;;;;;;;;;;;;;;20.17;40.74;101589.91;2058491;28;1482;-68
2024/01/13 02:39:54;;;;;;;;;;;;;;;20.19;40.75;101581.41;2058779;28;2017;-68
2024/01/13 02:40:55;;;;;;;;;;;;;;;20.19;40.72;101586.41;2060875;28;1553;-69
2024/01/13 02:41:57;;;;;;;;;;;;;;;20.19;40.80;101574.91;2061048;28;1705;-68
2024/01/13 02:42:58;;;;;;;;;;;;;;;20.19;40.77;101578.53;2060349;28;1627;-68
2024/01/13 02:43:59;;;;;;;;;;;;;;;20.17;40.81;101575.53;2061737;28;1904;-68
2024/01/13 02:45:03;;;;;;;;;;;;;;;20.19;40.89;101563.41;2059440;28;1512;-68
2024/01/13 02:46:05;;;;;;;;;;;;;;;20.20;40.84;101564.91;2059445;28;2029;-68
2024/01/13 02:47:06;;;;;;;;;;;;;;;20.21;40.68;101554.91;2057378;28;1591;-68
2024/01/13 02:48:14;;;;;;;;;;;;;;;20.22;40.83;101567.91;2058643;28;2200;-68
2024/01/13 02:49:29;;;;;;;;;;;;;;;20.22;40.75;101556.41;2061545;28;1603;-68
2024/01/13 02:50:30;;;;;;;;;;;;;;;20.22;40.75;101559.28;2061829;28;1630;-68
2024/01/13 02:51:32;;;;;;;;;;;;;;;20.21;40.76;101554.91;2057717;28;2249;-68
2024/01/13 02:52:33;;;;;;;;;;;;;;;20.21;40.90;101552.03;2060298;28;1538;-68
2024/01/13 02:53:34;;;;;;;;;;;;;;;20.21;40.95;101543.41;2060299;28;2255;-68
2024/01/13 02:54:36;;;;;;;;;;;;;;;20.21;40.83;101543.41;2059134;28;2246;-68
2024/01/13 02:55:39;;;;;;;;;;;;;;;20.21;40.74;101543.41;2061309;28;2196;-68
2024/01/13 02:56:40;;;;;;;;;;;;;;;20.21;41.07;101540.53;2060446;28;1989;-68
2024/01/13 02:57:42;;;;;;;;;;;;;;;20.20;40.92;101539.78;2060555;28;2117;-68
2024/01/13 02:58:44;;;;;;;;;;;;;;;20.20;40.70;101533.25;2057328;28;2499;-69
2024/01/13 02:59:47;;;;;;;;;;;;;;;20.21;40.94;101543.41;2060831;28;2239;-68
2024/01/13 03:00:49;;;;;;;;;;;;;;;20.21;40.71;101534.78;2059188;28;5994;-68
2024/01/13 03:01:54;;;;;;;;;;;;;;;20.20;40.94;101533.25;2052383;28;1864;-68
2024/01/13 03:02:55;;;;;;;;;;;;;;;20.19;41.07;101531.78;2055312;28;1985;-68
2024/01/13 03:03:56;;;;;;;;;;;;;;;20.19;40.99;101526.03;2061345;28;1914;-68
2024/01/13 03:04:58;;;;;;;;;;;;;;;20.18;40.99;101527.41;2060893;28;2475;-68
2024/01/13 03:06:00;;;;;;;;;;;;;;;20.17;40.92;101520.91;2057483;28;2271;-69
2024/01/13 03:07:02;;;;;;;;;;;;;;;20.17;40.84;101529.53;2063333;28;1801;-68
2024/01/13 03:08:03;;;;;;;;;;;;;;;20.17;40.80;101525.91;2060946;28;2282;-68
2024/01/13 03:09:05;;;;;;;;;;;;;;;20.17;40.97;101525.91;2062562;28;2077;-68
2024/01/13 03:10:08;;;;;;;;;;;;;;;20.17;40.92;101525.91;2059753;28;1503;-67
2024/01/13 03:11:10;;;;;;;;;;;;;;;20.16;40.84;101518.66;2059664;28;1634;-68
2024/01/13 03:12:11;;;;;;;;;;;;;;;20.15;40.88;101520.03;2061221;28;1579;-68
2024/01/13 03:13:13;;;;;;;;;;;;;;;20.15;40.97;101528.66;2060150;28;2222;-68
2024/01/13 03:14:14;;;;;;;;;;;;;;;20.15;40.81;101522.91;2059185;28;1515;-68
2024/01/13 03:15:16;;;;;;;;;;;;;;;20.16;40.92;101518.66;2062876;28;1553;-68
2024/01/13 03:16:17;;;;;;;;;;;;;;;20.15;40.94;101525.78;2058005;28;2052;-68
2024/01/13 03:17:18;;;;;;;;;;;;;;;20.15;40.82;101525.78;2055636;28;1895;-68
2024/01/13 03:18:20;;;;;;;;;;;;;;;20.15;41.03;101526.53;2061562;28;1834;-68
2024/01/13 03:19:33;;;;;;;;;;;;;;;20.15;40.96;101522.91;2061473;28;1538;-68
2024/01/13 03:20:35;;;;;;;;;;;;;;;20.14;41.08;101522.16;2058499;28;2147;-68
2024/01/13 03:21:36;;;;;;;;;;;;;;;20.16;40.84;101515.78;2060706;28;1513;-69
2024/01/13 03:22:38;;;;;;;;;;;;;;;20.17;40.84;101520.16;2058436;28;2231;-68
2024/01/13 03:23:39;;;;;;;;;;;;;;;20.16;40.86;101518.66;2060567;28;1677;-68
2024/01/13 03:24:41;;;;;;;;;;;;;;;20.17;40.82;101515.16;2060959;28;2147;-68
2024/01/13 03:25:42;;;;;;;;;;;;;;;20.17;40.82;101515.16;2060436;28;2151;-68
2024/01/13 03:26:44;;;;;;;;;;;;;;;20.18;40.89;101513.00;2059736;28;1655;-68
2024/01/13 03:27:45;;;;;;;;;;;;;;;20.19;40.70;101508.78;2056862;28;2843;-68
2024/01/13 03:28:46;;;;;;;;;;;;;;;20.18;40.71;101504.38;2053693;28;1648;-68
2024/01/13 03:29:48;;;;;;;;;;;;;;;20.18;40.80;101507.25;2052314;28;2070;-69
2024/01/13 03:30:49;;;;;;;;;;;;;;;20.18;40.61;101499.41;2058292;28;6221;-68
2024/01/13 03:31:51;;;;;;;;;;;;;;;20.18;40.72;101496.53;2056643;28;2184;-68
2024/01/13 03:32:52;;;;;;;;;;;;;;;20.18;40.94;101501.50;2058111;28;2154;-67
2024/01/13 03:33:53;;;;;;;;;;;;;;;20.18;40.96;101504.38;2059134;28;1743;-68
2024/01/13 03:34:55;;;;;;;;;;;;;;;20.19;40.80;101500.16;2059119;28;2524;-68
2024/01/13 03:35:57;;;;;;;;;;;;;;;20.18;40.98;101508.03;2062474;28;2155;-68
2024/01/13 03:36:59;;;;;;;;;;;;;;;20.18;40.73;101498.63;2060464;28;1956;-68
2024/01/13 03:38:00;;;;;;;;;;;;;;;20.18;40.86;101498.63;2061069;28;1615;-68
2024/01/13 03:39:02;;;;;;;;;;;;;;;20.19;40.85;101494.41;2061726;28;2152;-68
2024/01/13 03:40:04;;;;;;;;;;;;;;;20.19;40.77;101500.16;2060611;28;1653;-68
2024/01/13 03:41:06;;;;;;;;;;;;;;;20.18;40.76;101487.13;2058869;28;2123;-68
2024/01/13 03:42:07;;;;;;;;;;;;;;;20.18;40.88;101492.88;2059846;28;2109;-69
2024/01/13 03:43:09;;;;;;;;;;;;;;;20.19;40.73;101494.41;2060736;28;1651;-68
2024/01/13 03:44:10;;;;;;;;;;;;;;;20.18;40.73;101498.63;2061396;28;2174;-68
2024/01/13 03:45:14;;;;;;;;;;;;;;;20.17;40.73;101495.03;2060031;28;1667;-69
2024/01/13 03:46:16;;;;;;;;;;;;;;;20.18;40.76;101487.13;2061473;28;2345;-68
2024/01/13 03:47:18;;;;;;;;;;;;;;;20.17;40.89;101491.41;2062889;28;1584;-68
2024/01/13 03:48:19;;;;;;;;;;;;;;;20.18;40.74;101484.25;2063624;28;1711;-68
2024/01/13 03:49:21;;;;;;;;;;;;;;;20.19;40.86;101488.66;2060241;28;2200;-68
2024/01/13 03:50:23;;;;;;;;;;;;;;;20.19;40.84;101485.78;2056943;28;1873;-67
2024/01/13 03:51:24;;;;;;;;;;;;;;;20.19;40.90;101482.91;2056846;28;2080;-68
2024/01/13 03:52:26;;;;;;;;;;;;;;;20.19;40.92;101482.91;2060328;28;1939;-68
2024/01/13 03:53:28;;;;;;;;;;;;;;;20.18;40.90;101485.03;2059201;28;1880;-68
2024/01/13 03:54:29;;;;;;;;;;;;;;;20.19;40.90;101480.03;2059459;28;2410;-68
2024/01/13 03:55:31;;;;;;;;;;;;;;;20.20;40.95;101478.63;2063898;28;1699;-68
2024/01/13 03:56:32;;;;;;;;;;;;;;;20.20;40.96;101478.63;2062572;28;2199;-68
2024/01/13 03:57:34;;;;;;;;;;;;;;;20.22;40.86;101487.38;2060083;28;1894;-68
2024/01/13 03:58:46;;;;;;;;;;;;;;;20.22;40.86;101481.63;2060586;28;1630;-68
2024/01/13 03:59:48;;;;;;;;;;;;;;;20.21;40.67;101474.38;2061086;28;2391;-68
2024/01/13 04:00:49;;;;;;;;;;;;;;;20.22;40.65;101479.47;2062208;28;6160;-68
2024/01/13 04:01:54;;;;;;;;;;;;;;;20.22;40.81;101481.63;2059515;28;2116;-68
2024/01/13 04:02:56;;;;;;;;;;;;;;;20.21;40.79;101474.38;2060478;28;1921;-68
2024/01/13 04:03:58;;;;;;;;;;;;;;;20.23;40.75;101477.38;2061703;28;2176;-68
2024/01/13 04:04:59;;;;;;;;;;;;;;;20.23;40.78;101480.25;2060611;28;2575;-68
2024/01/13 04:06:02;;;;;;;;;;;;;;;20.22;40.62;101479.47;2062071;28;2117;-68
2024/01/13 04:07:04;;;;;;;;;;;;;;;20.23;40.62;101474.50;2061267;28;1628;-68
2024/01/13 04:08:05;;;;;;;;;;;;;;;20.24;40.82;101490.38;2062402;28;1647;-69
2024/01/13 04:09:07;;;;;;;;;;;;;;;20.23;40.75;101483.88;2062621;28;2230;-67
2024/01/13 04:10:09;;;;;;;;;;;;;;;20.25;40.79;101483.25;2062948;28;1626;-68
2024/01/13 04:11:10;;;;;;;;;;;;;;;20.26;40.90;101481.84;2061536;28;1651;-69
2024/01/13 04:12:12;;;;;;;;;;;;;;;20.27;40.78;101477.59;2061015;28;1727;-68
2024/01/13 04:13:13;;;;;;;;;;;;;;;20.27;40.78;101480.47;2057230;28;2040;-68
2024/01/13 04:14:15;;;;;;;;;;;;;;;20.27;40.71;101477.59;2062656;28;1667;-68
2024/01/13 04:15:16;;;;;;;;;;;;;;;20.27;40.77;101471.84;2062233;28;2227;-68
2024/01/13 04:16:18;;;;;;;;;;;;;;;20.27;40.58;101477.59;2058997;28;2191;-68
2024/01/13 04:17:19;;;;;;;;;;;;;;;20.28;40.75;101473.34;2059816;28;2329;-68
2024/01/13 04:18:21;;;;;;;;;;;;;;;20.29;40.58;101474.81;2062752;28;1607;-68
2024/01/13 04:19:22;;;;;;;;;;;;;;;20.28;40.64;101468.34;2063203;28;1841;-68
2024/01/13 04:20:24;;;;;;;;;;;;;;;20.29;40.49;101469.06;2059708;28;2109;-68
2024/01/13 04:21:26;;;;;;;;;;;;;;;20.30;40.57;101470.59;2061538;28;2424;-68
2024/01/13 04:22:27;;;;;;;;;;;;;;;20.29;40.57;101471.94;2061341;28;2037;-67
2024/01/13 04:23:29;;;;;;;;;;;;;;;20.29;40.69;101457.56;2059951;28;1960;-68
2024/01/13 04:24:30;;;;;;;;;;;;;;;20.28;40.79;101464.72;2058248;28;2082;-68
2024/01/13 04:25:32;;;;;;;;;;;;;;;20.28;40.70;101459.72;2058510;28;1631;-68
2024/01/13 04:26:33;;;;;;;;;;;;;;;20.29;40.63;101457.56;2060782;28;2202;-68
2024/01/13 04:27:35;;;;;;;;;;;;;;;20.27;40.66;101460.34;2058250;28;1759;-68
2024/01/13 04:28:36;;;;;;;;;;;;;;;20.28;40.74;101456.09;2057611;28;2183;-68
2024/01/13 04:29:37;;;;;;;;;;;;;;;20.28;40.78;101456.09;2062122;28;1667;-68
2024/01/13 04:30:39;;;;;;;;;;;;;;;20.28;40.77;101461.84;2056629;28;6494;-68
2024/01/13 04:31:40;;;;;;;;;;;;;;;20.28;40.70;101456.09;2059854;28;1691;-68
2024/01/13 04:32:42;;;;;;;;;;;;;;;20.27;40.76;101461.09;2063095;28;1691;-68
2024/01/13 04:33:44;;;;;;;;;;;;;;;20.26;40.75;101455.97;2060442;28;2203;-68
2024/01/13 04:34:45;;;;;;;;;;;;;;;20.27;40.75;101460.34;2058938;28;1651;-68
2024/01/13 04:35:47;;;;;;;;;;;;;;;20.25;40.89;101457.38;2062279;28;2179;-68
2024/01/13 04:36:49;;;;;;;;;;;;;;;20.27;40.78;101458.22;2061339;28;2168;-68
2024/01/13 04:37:50;;;;;;;;;;;;;;;20.28;40.78;101461.84;2062451;28;1985;-68
2024/01/13 04:38:52;;;;;;;;;;;;;;;20.29;40.70;101460.44;2059535;28;2044;-68
2024/01/13 04:39:53;;;;;;;;;;;;;;;20.27;40.69;101454.59;2059180;28;1631;-68
2024/01/13 04:40:54;;;;;;;;;;;;;;;20.27;40.68;101455.34;2058657;28;1719;-68
2024/01/13 04:41:56;;;;;;;;;;;;;;;20.29;40.66;101454.69;2061375;28;1690;-68
2024/01/13 04:42:57;;;;;;;;;;;;;;;20.29;40.76;101466.19;2061443;28;2092;-68
2024/01/13 04:43:59;;;;;;;;;;;;;;;20.30;40.72;101459.09;2060177;28;2493;-68
2024/01/13 04:45:00;;;;;;;;;;;;;;;20.31;40.79;101466.31;2060895;28;2199;-68
2024/01/13 04:46:01;;;;;;;;;;;;;;;20.29;40.69;101457.56;2058759;28;1695;-68
2024/01/13 04:47:03;;;;;;;;;;;;;;;20.30;40.73;101456.22;2058551;28;2254;-68
2024/01/13 04:48:04;;;;;;;;;;;;;;;20.30;40.87;101453.34;2062329;28;2237;-68
2024/01/13 04:49:06;;;;;;;;;;;;;;;20.31;40.66;101449.06;2057778;28;2194;-68
2024/01/13 04:50:08;;;;;;;;;;;;;;;20.31;40.76;101440.44;2059543;28;2513;-68
2024/01/13 04:51:09;;;;;;;;;;;;;;;20.30;40.80;101436.81;2058009;28;2072;-68
2024/01/13 04:52:11;;;;;;;;;;;;;;;20.31;40.70;101443.31;2062256;28;1592;-68
2024/01/13 04:53:12;;;;;;;;;;;;;;;20.30;40.58;101447.56;2060141;28;2029;-69
2024/01/13 04:54:14;;;;;;;;;;;;;;;20.31;40.66;101437.56;2061975;28;2215;-69
2024/01/13 04:55:15;;;;;;;;;;;;;;;20.31;40.78;101437.56;2061687;28;2275;-68
2024/01/13 04:56:17;;;;;;;;;;;;;;;20.32;40.66;101441.19;2061245;28;1659;-68
2024/01/13 04:57:18;;;;;;;;;;;;;;;20.33;40.66;101428.31;2059535;28;2228;-68
2024/01/13 04:58:20;;;;;;;;;;;;;;;20.33;40.62;101429.03;2060463;28;2243;-68
2024/01/13 04:59:21;;;;;;;;;;;;;;;20.33;40.71;101429.03;2060673;28;1663;-68
2024/01/13 05:00:22;;;;;;;;;;;;;;;20.33;40.70;101434.06;2062366;28;6169;-67
2024/01/13 05:01:24;;;;;;;;;;;;;;;20.33;40.71;101423.28;2062438;28;1631;-68
2024/01/13 05:02:26;;;;;;;;;;;;;;;20.34;40.68;101424.03;2058763;28;1611;-68
2024/01/13 05:03:27;;;;;;;;;;;;;;;20.34;40.76;101430.56;2061205;28;2064;-68
2024/01/13 05:04:29;;;;;;;;;;;;;;;20.34;40.69;101430.56;2060274;28;2190;-70
2024/01/13 05:05:30;;;;;;;;;;;;;;;20.35;40.84;101434.91;2063582;28;1710;-68
2024/01/13 05:06:32;;;;;;;;;;;;;;;20.35;40.80;101428.41;2061785;28;2274;-68
2024/01/13 05:07:36;;;;;;;;;;;;;;;20.35;40.61;101439.94;2060780;28;2233;-68
2024/01/13 05:08:37;;;;;;;;;;;;;;;20.36;40.70;101441.41;2061007;28;1947;-68
2024/01/13 05:09:39;;;;;;;;;;;;;;;20.34;40.62;101430.56;2062126;28;1888;-68
2024/01/13 05:10:41;;;;;;;;;;;;;;;20.35;40.64;101437.03;2059048;28;2258;-68
2024/01/13 05:11:42;;;;;;;;;;;;;;;20.34;40.67;101424.03;2059128;28;1908;-68
2024/01/13 05:12:43;;;;;;;;;;;;;;;20.33;40.72;101429.03;2061115;28;2120;-68
2024/01/13 05:13:45;;;;;;;;;;;;;;;20.33;40.90;101428.31;2058786;28;1872;-68
2024/01/13 05:14:46;;;;;;;;;;;;;;;20.33;40.65;101423.28;2054130;28;2313;-68
2024/01/13 05:15:48;;;;;;;;;;;;;;;20.32;40.74;101427.56;2054209;28;1641;-68
2024/01/13 05:16:49;;;;;;;;;;;;;;;20.33;40.71;101423.28;2061951;28;1627;-68
2024/01/13 05:17:51;;;;;;;;;;;;;;;20.32;40.90;101424.69;2058388;28;2280;-69
2024/01/13 05:18:52;;;;;;;;;;;;;;;20.32;40.67;101421.81;2060163;28;1824;-68
2024/01/13 05:19:54;;;;;;;;;;;;;;;20.33;40.66;101422.56;2061007;28;2342;-68
2024/01/13 05:20:55;;;;;;;;;;;;;;;20.32;40.73;101415.28;2057151;28;1622;-68
2024/01/13 05:21:57;;;;;;;;;;;;;;;20.32;40.67;101416.06;2059740;28;2139;-68
2024/01/13 05:22:58;;;;;;;;;;;;;;;20.32;40.80;101418.94;2059491;28;1861;-68